Aviation Digital Data Service (ADDS)

Output produced by METARs form (2006 UTC 18 January 2017)
found at http://aviationweather.gov/adds/metars/
 
KVQQ 181720Z 1818/1918 26008KT P6SM SCT045 BKN250 
     FM190400 26003KT 6SM BR BKN250 
     FM190600 29003KT 1SM BR SCT003 SCT250 
     FM190900 00000KT 1/2SM FG BKN002 
     FM191400 VRB02KT 2SM BR BKN005 
     FM191530 05002KT P6SM SCT010